Athens, IN

4:55 AM EST on February 09, 2016 (GMT -0500)
4th Street | | Change Station
CLOSE
Current Station
Personal Weather Station
Location: Rochester, IN
Elevation: 781 ft
Nearby Weather Stations
Active Advisory: Special Statement

Elev 781 ft 41.07 °N, 86.20 °W | Updated 4 minutes ago

Light Snow
Light Snow
22.7 °F
Feels Like 11 °F
N
12.0
Wind Variable Wind from West
Gusts 16.0 mph

Today
High -- | Low -- °F
--% Chance of Precip.
Yesterday
High -- | Low -- °F
Precip. -- in
Pressure 29.66 in
Visibility 3.0 miles
Clouds Mostly Cloudy 800 ft
Overcast 1300 ft
Windchill 11 °F
Dew Point 19 °F
Humidity 87%
Rainfall 0.00 in
Snow Depth Not available.
7:47 AM 6:10 PM
New Moon, 1% visible
METAR KRCR 090935Z AUTO 28007KT 3SM -SN BKN008 OVC013 M03/M06 A2966 RMK AO2
Pressure 29.66 in
Visibility 3.0 miles
Clouds Mostly Cloudy 800 ft
Overcast 1300 ft
Windchill 11 °F
Dew Point 19 °F
Humidity 87%
Rainfall 0.00 in
Snow Depth Not available.
7:47 AM 6:10 PM
New Moon, 1% visible
METAR KRCR 090935Z AUTO 28007KT 3SM -SN BKN008 OVC013 M03/M06 A2966 RMK AO2

10-Day Weather Forecast

Almanac

Astronomy

Feb. 09, 2016 Rise Set
Actual Time
Civil Twilight
Nautical Twilight
Astronomical Twilight
Moon
Length of Visible Light
Length of Day
Tomorrow will be .
, % of the Moon is Illuminated

Today's Extremes

State Highs State Lows

Community

WunderPhotos

Upload Photos

1,891,565 photos uploaded!

WunderBlog® & News

Nearby

Air Quality

  Air Quality AQ Index Pollutant
Not available.

Snow Depth

Station Depth Elevation

Earthquake Activity

City Distance Mag. Time & Date
Minimum magnitude displayed is 2.5.

Coastal Water Temperatures

Place Temperature

Stations

Nearby Weather Stations

Station Location Temp. Windchill Dew Point Humidity Wind Precip. Elev Updated Type
                   

Watches & Warnings

Special Statement
Issued: 12:44 AM CST Feb. 9, 2016 – National Weather Service

... Scattered snow showers through the remainder of the night with
slick roads possible...

Scattered snow showers will be seen across portions of northern
Indiana and far southwestern lower Michigan the remainder of the
night. The heavier or more persistent snow showers may produce a
quick burst of a half inch to locally an inch of snowfall. Motorists
may encounter slick roads as the fallen snow melts and refreezes
from traffic.



144 am EST Tue Feb 9 2016 /1244 am CST Tue Feb 9 2016/

... Scattered snow showers through the remainder of the night with
slick roads possible...

Scattered snow showers will be seen across portions of northern
Indiana and far southwestern lower Michigan the remainder of the
night. The heavier or more persistent snow showers may produce a
quick burst of a half inch to locally an inch of snowfall. Motorists
may encounter slick roads as the fallen snow melts and refreezes
from traffic.